sensor_id;sensor_type;location;lat;lon;timestamp;P1;durP1;ratioP1;P2;durP2;ratioP2
67108;SDS011;54027;50.786;7.058;2023-11-21T00:02:05;12.02;;;4.97;;
67108;SDS011;54027;50.786;7.058;2023-11-21T00:04:30;6.95;;;4.50;;
67108;SDS011;54027;50.786;7.058;2023-11-21T00:06:56;7.55;;;4.38;;
67108;SDS011;54027;50.786;7.058;2023-11-21T00:09:21;7.47;;;4.82;;
67108;SDS011;54027;50.786;7.058;2023-11-21T00:11:46;9.65;;;4.72;;
67108;SDS011;54027;50.786;7.058;2023-11-21T00:14:12;14.85;;;5.60;;
67108;SDS011;54027;50.786;7.058;2023-11-21T00:16:37;10.10;;;5.68;;
67108;SDS011;54027;50.786;7.058;2023-11-21T00:19:02;13.57;;;6.93;;
67108;SDS011;54027;50.786;7.058;2023-11-21T00:21:28;12.75;;;7.45;;
67108;SDS011;54027;50.786;7.058;2023-11-21T00:23:53;14.57;;;7.57;;
67108;SDS011;54027;50.786;7.058;2023-11-21T00:26:18;14.38;;;8.32;;
67108;SDS011;54027;50.786;7.058;2023-11-21T00:28:44;14.52;;;8.75;;
67108;SDS011;54027;50.786;7.058;2023-11-21T00:31:10;13.07;;;7.35;;
67108;SDS011;54027;50.786;7.058;2023-11-21T00:33:36;11.80;;;7.53;;
67108;SDS011;54027;50.786;7.058;2023-11-21T00:36:01;11.95;;;7.97;;
67108;SDS011;54027;50.786;7.058;2023-11-21T00:38:27;14.70;;;8.95;;
67108;SDS011;54027;50.786;7.058;2023-11-21T00:40:52;20.25;;;9.93;;
67108;SDS011;54027;50.786;7.058;2023-11-21T00:43:21;17.15;;;9.38;;
67108;SDS011;54027;50.786;7.058;2023-11-21T00:45:49;18.77;;;9.75;;
67108;SDS011;54027;50.786;7.058;2023-11-21T00:48:14;16.63;;;9.23;;
67108;SDS011;54027;50.786;7.058;2023-11-21T00:50:40;16.40;;;9.10;;
67108;SDS011;54027;50.786;7.058;2023-11-21T00:53:06;15.23;;;9.77;;
67108;SDS011;54027;50.786;7.058;2023-11-21T00:55:32;17.48;;;9.32;;
67108;SDS011;54027;50.786;7.058;2023-11-21T00:57:58;19.55;;;10.32;;
67108;SDS011;54027;50.786;7.058;2023-11-21T01:00:23;16.90;;;9.38;;
67108;SDS011;54027;50.786;7.058;2023-11-21T01:02:49;19.98;;;9.57;;
67108;SDS011;54027;50.786;7.058;2023-11-21T01:05:14;20.23;;;10.38;;
67108;SDS011;54027;50.786;7.058;2023-11-21T01:07:39;15.88;;;9.13;;
67108;SDS011;54027;50.786;7.058;2023-11-21T01:10:05;17.25;;;10.05;;
67108;SDS011;54027;50.786;7.058;2023-11-21T01:12:33;15.23;;;8.98;;
67108;SDS011;54027;50.786;7.058;2023-11-21T01:15:00;14.55;;;8.50;;
67108;SDS011;54027;50.786;7.058;2023-11-21T01:17:25;15.70;;;8.93;;
67108;SDS011;54027;50.786;7.058;2023-11-21T01:19:52;15.70;;;9.68;;
67108;SDS011;54027;50.786;7.058;2023-11-21T01:22:17;15.60;;;9.52;;
67108;SDS011;54027;50.786;7.058;2023-11-21T01:24:45;20.13;;;9.38;;
67108;SDS011;54027;50.786;7.058;2023-11-21T01:27:10;17.98;;;8.50;;
67108;SDS011;54027;50.786;7.058;2023-11-21T01:29:35;14.88;;;8.02;;
67108;SDS011;54027;50.786;7.058;2023-11-21T01:32:02;17.08;;;8.80;;
67108;SDS011;54027;50.786;7.058;2023-11-21T01:34:28;12.45;;;8.30;;
67108;SDS011;54027;50.786;7.058;2023-11-21T01:36:53;14.75;;;7.70;;
67108;SDS011;54027;50.786;7.058;2023-11-21T01:39:19;13.68;;;7.72;;
67108;SDS011;54027;50.786;7.058;2023-11-21T01:41:48;15.52;;;7.90;;
67108;SDS011;54027;50.786;7.058;2023-11-21T01:44:14;18.67;;;8.05;;
67108;SDS011;54027;50.786;7.058;2023-11-21T01:46:41;13.93;;;8.98;;
67108;SDS011;54027;50.786;7.058;2023-11-21T01:49:07;17.67;;;8.25;;
67108;SDS011;54027;50.786;7.058;2023-11-21T01:51:34;12.55;;;8.18;;
67108;SDS011;54027;50.786;7.058;2023-11-21T01:54:01;13.50;;;8.75;;
67108;SDS011;54027;50.786;7.058;2023-11-21T01:56:30;13.60;;;8.52;;
67108;SDS011;54027;50.786;7.058;2023-11-21T01:58:56;18.45;;;9.40;;
67108;SDS011;54027;50.786;7.058;2023-11-21T02:01:22;16.90;;;8.77;;
67108;SDS011;54027;50.786;7.058;2023-11-21T02:03:47;15.45;;;8.70;;
67108;SDS011;54027;50.786;7.058;2023-11-21T02:06:13;15.20;;;8.68;;
67108;SDS011;54027;50.786;7.058;2023-11-21T02:08:38;18.67;;;8.63;;
67108;SDS011;54027;50.786;7.058;2023-11-21T02:11:04;15.45;;;7.90;;
67108;SDS011;54027;50.786;7.058;2023-11-21T02:13:30;16.70;;;8.40;;
67108;SDS011;54027;50.786;7.058;2023-11-21T02:15:56;15.90;;;9.23;;
67108;SDS011;54027;50.786;7.058;2023-11-21T02:18:21;18.20;;;9.38;;
67108;SDS011;54027;50.786;7.058;2023-11-21T02:20:47;17.95;;;9.65;;
67108;SDS011;54027;50.786;7.058;2023-11-21T02:23:12;16.50;;;9.32;;
67108;SDS011;54027;50.786;7.058;2023-11-21T02:25:38;15.73;;;8.60;;
67108;SDS011;54027;50.786;7.058;2023-11-21T02:28:03;16.30;;;9.38;;
67108;SDS011;54027;50.786;7.058;2023-11-21T02:30:29;16.30;;;9.80;;
67108;SDS011;54027;50.786;7.058;2023-11-21T02:32:58;14.13;;;9.85;;
67108;SDS011;54027;50.786;7.058;2023-11-21T02:35:24;16.48;;;10.20;;
67108;SDS011;54027;50.786;7.058;2023-11-21T02:37:53;20.08;;;10.45;;
67108;SDS011;54027;50.786;7.058;2023-11-21T02:40:19;20.02;;;11.65;;
67108;SDS011;54027;50.786;7.058;2023-11-21T02:42:48;24.85;;;12.70;;
67108;SDS011;54027;50.786;7.058;2023-11-21T02:45:16;23.42;;;12.32;;
67108;SDS011;54027;50.786;7.058;2023-11-21T02:47:45;22.95;;;12.38;;
67108;SDS011;54027;50.786;7.058;2023-11-21T02:50:10;24.38;;;13.50;;
67108;SDS011;54027;50.786;7.058;2023-11-21T02:52:36;27.85;;;15.10;;
67108;SDS011;54027;50.786;7.058;2023-11-21T02:55:02;29.55;;;14.75;;
67108;SDS011;54027;50.786;7.058;2023-11-21T02:57:28;27.52;;;15.00;;
67108;SDS011;54027;50.786;7.058;2023-11-21T02:59:53;22.73;;;12.68;;
67108;SDS011;54027;50.786;7.058;2023-11-21T03:02:19;24.17;;;15.07;;
67108;SDS011;54027;50.786;7.058;2023-11-21T03:04:45;29.52;;;13.80;;
67108;SDS011;54027;50.786;7.058;2023-11-21T03:07:10;28.90;;;14.80;;
67108;SDS011;54027;50.786;7.058;2023-11-21T03:09:35;25.52;;;14.13;;
67108;SDS011;54027;50.786;7.058;2023-11-21T03:12:01;32.00;;;14.80;;
67108;SDS011;54027;50.786;7.058;2023-11-21T03:14:27;25.95;;;14.95;;
67108;SDS011;54027;50.786;7.058;2023-11-21T03:16:52;25.45;;;13.20;;
67108;SDS011;54027;50.786;7.058;2023-11-21T03:19:17;27.35;;;14.20;;
67108;SDS011;54027;50.786;7.058;2023-11-21T03:21:43;28.60;;;14.68;;
67108;SDS011;54027;50.786;7.058;2023-11-21T03:24:08;29.88;;;14.07;;
67108;SDS011;54027;50.786;7.058;2023-11-21T03:26:34;23.70;;;14.98;;
67108;SDS011;54027;50.786;7.058;2023-11-21T03:28:59;31.75;;;16.98;;
67108;SDS011;54027;50.786;7.058;2023-11-21T03:31:24;38.63;;;17.67;;
67108;SDS011;54027;50.786;7.058;2023-11-21T03:33:50;32.50;;;17.02;;
67108;SDS011;54027;50.786;7.058;2023-11-21T03:36:15;23.23;;;16.05;;
67108;SDS011;54027;50.786;7.058;2023-11-21T03:38:41;34.97;;;18.50;;
67108;SDS011;54027;50.786;7.058;2023-11-21T03:41:07;36.20;;;18.65;;
67108;SDS011;54027;50.786;7.058;2023-11-21T03:43:35;30.90;;;17.15;;
67108;SDS011;54027;50.786;7.058;2023-11-21T03:46:01;33.58;;;16.67;;
67108;SDS011;54027;50.786;7.058;2023-11-21T03:48:26;32.65;;;17.70;;
67108;SDS011;54027;50.786;7.058;2023-11-21T03:50:51;28.95;;;17.85;;
67108;SDS011;54027;50.786;7.058;2023-11-21T03:53:17;36.03;;;19.08;;
67108;SDS011;54027;50.786;7.058;2023-11-21T03:55:42;39.95;;;20.23;;
67108;SDS011;54027;50.786;7.058;2023-11-21T03:58:07;40.28;;;19.35;;
67108;SDS011;54027;50.786;7.058;2023-11-21T04:00:33;35.63;;;18.23;;
67108;SDS011;54027;50.786;7.058;2023-11-21T04:02:58;31.90;;;17.40;;
67108;SDS011;54027;50.786;7.058;2023-11-21T04:05:23;39.08;;;19.65;;
67108;SDS011;54027;50.786;7.058;2023-11-21T04:07:49;37.20;;;18.85;;
67108;SDS011;54027;50.786;7.058;2023-11-21T04:10:16;43.22;;;19.38;;
67108;SDS011;54027;50.786;7.058;2023-11-21T04:12:41;36.63;;;19.27;;
67108;SDS011;54027;50.786;7.058;2023-11-21T04:15:07;36.55;;;19.33;;
67108;SDS011;54027;50.786;7.058;2023-11-21T04:17:36;40.53;;;21.02;;
67108;SDS011;54027;50.786;7.058;2023-11-21T04:20:02;35.13;;;18.70;;
67108;SDS011;54027;50.786;7.058;2023-11-21T04:22:33;39.40;;;20.35;;
67108;SDS011;54027;50.786;7.058;2023-11-21T04:24:58;35.58;;;18.88;;
67108;SDS011;54027;50.786;7.058;2023-11-21T04:27:24;36.28;;;18.02;;
67108;SDS011;54027;50.786;7.058;2023-11-21T04:29:49;41.08;;;18.77;;
67108;SDS011;54027;50.786;7.058;2023-11-21T04:32:14;38.28;;;18.52;;
67108;SDS011;54027;50.786;7.058;2023-11-21T04:34:41;36.35;;;18.30;;
67108;SDS011;54027;50.786;7.058;2023-11-21T04:37:06;33.83;;;17.58;;
67108;SDS011;54027;50.786;7.058;2023-11-21T04:39:31;38.53;;;18.50;;
67108;SDS011;54027;50.786;7.058;2023-11-21T04:41:57;41.22;;;18.80;;
67108;SDS011;54027;50.786;7.058;2023-11-21T04:44:22;38.20;;;18.38;;
67108;SDS011;54027;50.786;7.058;2023-11-21T04:46:47;35.70;;;18.58;;
67108;SDS011;54027;50.786;7.058;2023-11-21T04:49:13;30.98;;;17.90;;
67108;SDS011;54027;50.786;7.058;2023-11-21T04:51:39;35.17;;;18.23;;
67108;SDS011;54027;50.786;7.058;2023-11-21T04:54:04;33.10;;;16.67;;
67108;SDS011;54027;50.786;7.058;2023-11-21T04:56:30;30.00;;;17.27;;
67108;SDS011;54027;50.786;7.058;2023-11-21T04:58:56;33.38;;;17.65;;
67108;SDS011;54027;50.786;7.058;2023-11-21T05:01:21;30.98;;;16.70;;
67108;SDS011;54027;50.786;7.058;2023-11-21T05:03:47;34.53;;;16.20;;
67108;SDS011;54027;50.786;7.058;2023-11-21T05:06:13;35.40;;;16.55;;
67108;SDS011;54027;50.786;7.058;2023-11-21T05:08:39;28.35;;;15.85;;
67108;SDS011;54027;50.786;7.058;2023-11-21T05:11:04;32.85;;;16.60;;
67108;SDS011;54027;50.786;7.058;2023-11-21T05:13:33;30.50;;;16.30;;
67108;SDS011;54027;50.786;7.058;2023-11-21T05:15:59;37.25;;;18.13;;
67108;SDS011;54027;50.786;7.058;2023-11-21T05:18:24;28.95;;;16.40;;
67108;SDS011;54027;50.786;7.058;2023-11-21T05:20:54;30.60;;;16.65;;
67108;SDS011;54027;50.786;7.058;2023-11-21T05:23:20;28.20;;;15.98;;
67108;SDS011;54027;50.786;7.058;2023-11-21T05:25:45;32.03;;;16.38;;
67108;SDS011;54027;50.786;7.058;2023-11-21T05:28:11;36.22;;;17.48;;
67108;SDS011;54027;50.786;7.058;2023-11-21T05:30:36;29.52;;;16.25;;
67108;SDS011;54027;50.786;7.058;2023-11-21T05:33:04;32.40;;;17.98;;
67108;SDS011;54027;50.786;7.058;2023-11-21T05:35:29;32.90;;;18.42;;
67108;SDS011;54027;50.786;7.058;2023-11-21T05:37:55;40.90;;;20.50;;
67108;SDS011;54027;50.786;7.058;2023-11-21T05:40:20;40.50;;;18.58;;
67108;SDS011;54027;50.786;7.058;2023-11-21T05:42:47;42.97;;;20.02;;
67108;SDS011;54027;50.786;7.058;2023-11-21T05:45:13;44.67;;;20.63;;
67108;SDS011;54027;50.786;7.058;2023-11-21T05:47:39;46.90;;;20.60;;
67108;SDS011;54027;50.786;7.058;2023-11-21T05:50:06;39.88;;;20.25;;
67108;SDS011;54027;50.786;7.058;2023-11-21T05:52:37;43.97;;;22.23;;
67108;SDS011;54027;50.786;7.058;2023-11-21T05:55:04;41.70;;;20.95;;
67108;SDS011;54027;50.786;7.058;2023-11-21T05:57:32;40.72;;;20.17;;
67108;SDS011;54027;50.786;7.058;2023-11-21T06:00:08;44.33;;;22.08;;
67108;SDS011;54027;50.786;7.058;2023-11-21T06:02:36;48.05;;;21.02;;
67108;SDS011;54027;50.786;7.058;2023-11-21T06:05:06;47.03;;;21.50;;
67108;SDS011;54027;50.786;7.058;2023-11-21T06:07:32;46.90;;;21.65;;
67108;SDS011;54027;50.786;7.058;2023-11-21T06:09:57;47.95;;;20.92;;
67108;SDS011;54027;50.786;7.058;2023-11-21T06:12:23;51.72;;;21.75;;
67108;SDS011;54027;50.786;7.058;2023-11-21T06:14:49;42.17;;;20.10;;
67108;SDS011;54027;50.786;7.058;2023-11-21T06:17:14;47.67;;;21.05;;
67108;SDS011;54027;50.786;7.058;2023-11-21T06:19:39;43.80;;;20.48;;
67108;SDS011;54027;50.786;7.058;2023-11-21T06:22:05;50.88;;;21.98;;
67108;SDS011;54027;50.786;7.058;2023-11-21T06:24:31;43.22;;;20.15;;
67108;SDS011;54027;50.786;7.058;2023-11-21T06:26:56;44.20;;;21.85;;
67108;SDS011;54027;50.786;7.058;2023-11-21T06:29:22;47.05;;;22.42;;
67108;SDS011;54027;50.786;7.058;2023-11-21T06:31:47;44.15;;;21.33;;
67108;SDS011;54027;50.786;7.058;2023-11-21T06:34:12;40.00;;;20.42;;
67108;SDS011;54027;50.786;7.058;2023-11-21T06:36:38;46.38;;;19.85;;
67108;SDS011;54027;50.786;7.058;2023-11-21T06:39:04;39.03;;;19.13;;
67108;SDS011;54027;50.786;7.058;2023-11-21T06:41:34;44.55;;;20.73;;
67108;SDS011;54027;50.786;7.058;2023-11-21T06:43:59;42.28;;;20.08;;
67108;SDS011;54027;50.786;7.058;2023-11-21T06:46:25;45.05;;;19.52;;
67108;SDS011;54027;50.786;7.058;2023-11-21T06:48:50;43.45;;;19.70;;
67108;SDS011;54027;50.786;7.058;2023-11-21T06:51:15;41.65;;;20.02;;
67108;SDS011;54027;50.786;7.058;2023-11-21T06:53:41;45.05;;;19.58;;
67108;SDS011;54027;50.786;7.058;2023-11-21T06:56:16;45.05;;;20.45;;
67108;SDS011;54027;50.786;7.058;2023-11-21T06:58:42;45.08;;;19.58;;
67108;SDS011;54027;50.786;7.058;2023-11-21T07:01:08;42.13;;;19.63;;
67108;SDS011;54027;50.786;7.058;2023-11-21T07:03:33;45.05;;;19.45;;
67108;SDS011;54027;50.786;7.058;2023-11-21T07:05:58;42.20;;;20.83;;
67108;SDS011;54027;50.786;7.058;2023-11-21T07:08:23;46.28;;;19.90;;
67108;SDS011;54027;50.786;7.058;2023-11-21T07:10:49;42.42;;;20.60;;
67108;SDS011;54027;50.786;7.058;2023-11-21T07:13:14;46.35;;;19.85;;
67108;SDS011;54027;50.786;7.058;2023-11-21T07:15:40;38.88;;;18.80;;
67108;SDS011;54027;50.786;7.058;2023-11-21T07:18:05;37.67;;;18.70;;
67108;SDS011;54027;50.786;7.058;2023-11-21T07:20:32;39.85;;;18.77;;
67108;SDS011;54027;50.786;7.058;2023-11-21T07:22:58;43.58;;;20.55;;
67108;SDS011;54027;50.786;7.058;2023-11-21T07:25:24;42.38;;;20.17;;
67108;SDS011;54027;50.786;7.058;2023-11-21T07:27:49;47.55;;;21.45;;
67108;SDS011;54027;50.786;7.058;2023-11-21T07:30:15;48.65;;;20.73;;
67108;SDS011;54027;50.786;7.058;2023-11-21T07:32:40;46.38;;;21.40;;
67108;SDS011;54027;50.786;7.058;2023-11-21T07:35:06;43.35;;;20.77;;
67108;SDS011;54027;50.786;7.058;2023-11-21T07:37:33;45.05;;;20.20;;
67108;SDS011;54027;50.786;7.058;2023-11-21T07:39:58;39.55;;;19.50;;
67108;SDS011;54027;50.786;7.058;2023-11-21T07:42:23;42.47;;;18.42;;
67108;SDS011;54027;50.786;7.058;2023-11-21T07:44:51;44.08;;;18.98;;
67108;SDS011;54027;50.786;7.058;2023-11-21T07:47:17;44.17;;;20.40;;
67108;SDS011;54027;50.786;7.058;2023-11-21T07:49:42;40.92;;;19.52;;
67108;SDS011;54027;50.786;7.058;2023-11-21T07:52:09;45.63;;;20.50;;
67108;SDS011;54027;50.786;7.058;2023-11-21T07:54:35;41.28;;;19.55;;
67108;SDS011;54027;50.786;7.058;2023-11-21T07:57:00;44.58;;;20.08;;
67108;SDS011;54027;50.786;7.058;2023-11-21T07:59:26;43.88;;;20.45;;
67108;SDS011;54027;50.786;7.058;2023-11-21T08:01:51;37.95;;;19.42;;
67108;SDS011;54027;50.786;7.058;2023-11-21T08:04:17;37.67;;;18.63;;
67108;SDS011;54027;50.786;7.058;2023-11-21T08:06:43;38.35;;;19.92;;
67108;SDS011;54027;50.786;7.058;2023-11-21T08:09:08;44.10;;;21.33;;
67108;SDS011;54027;50.786;7.058;2023-11-21T08:11:34;40.28;;;18.33;;
67108;SDS011;54027;50.786;7.058;2023-11-21T08:13:59;38.88;;;19.50;;
67108;SDS011;54027;50.786;7.058;2023-11-21T08:16:25;42.15;;;18.83;;
67108;SDS011;54027;50.786;7.058;2023-11-21T08:18:50;34.97;;;18.63;;
67108;SDS011;54027;50.786;7.058;2023-11-21T08:21:16;41.55;;;20.15;;
67108;SDS011;54027;50.786;7.058;2023-11-21T08:23:41;45.25;;;21.05;;
67108;SDS011;54027;50.786;7.058;2023-11-21T08:26:07;46.20;;;20.90;;
67108;SDS011;54027;50.786;7.058;2023-11-21T08:28:33;39.40;;;19.13;;
67108;SDS011;54027;50.786;7.058;2023-11-21T08:31:00;43.30;;;20.88;;
67108;SDS011;54027;50.786;7.058;2023-11-21T08:33:26;42.53;;;20.30;;
67108;SDS011;54027;50.786;7.058;2023-11-21T08:35:51;38.42;;;19.05;;
67108;SDS011;54027;50.786;7.058;2023-11-21T08:38:16;43.85;;;20.75;;
67108;SDS011;54027;50.786;7.058;2023-11-21T08:40:42;42.13;;;19.80;;
67108;SDS011;54027;50.786;7.058;2023-11-21T08:43:08;41.20;;;19.48;;
67108;SDS011;54027;50.786;7.058;2023-11-21T08:45:34;39.55;;;19.73;;
67108;SDS011;54027;50.786;7.058;2023-11-21T08:48:02;40.78;;;18.95;;
67108;SDS011;54027;50.786;7.058;2023-11-21T08:50:28;43.05;;;18.48;;
67108;SDS011;54027;50.786;7.058;2023-11-21T08:52:54;35.58;;;18.23;;
67108;SDS011;54027;50.786;7.058;2023-11-21T08:55:19;37.58;;;19.73;;
67108;SDS011;54027;50.786;7.058;2023-11-21T08:57:45;30.00;;;17.15;;
67108;SDS011;54027;50.786;7.058;2023-11-21T09:00:11;39.28;;;18.95;;
67108;SDS011;54027;50.786;7.058;2023-11-21T09:02:40;35.10;;;17.67;;
67108;SDS011;54027;50.786;7.058;2023-11-21T09:05:09;38.47;;;19.52;;
67108;SDS011;54027;50.786;7.058;2023-11-21T09:07:36;37.13;;;18.30;;
67108;SDS011;54027;50.786;7.058;2023-11-21T09:10:03;40.33;;;19.25;;
67108;SDS011;54027;50.786;7.058;2023-11-21T09:12:30;33.00;;;17.88;;
67108;SDS011;54027;50.786;7.058;2023-11-21T09:14:57;35.45;;;18.42;;
67108;SDS011;54027;50.786;7.058;2023-11-21T09:17:23;37.13;;;18.17;;
67108;SDS011;54027;50.786;7.058;2023-11-21T09:19:49;35.45;;;18.40;;
67108;SDS011;54027;50.786;7.058;2023-11-21T09:22:17;34.63;;;17.73;;
67108;SDS011;54027;50.786;7.058;2023-11-21T09:24:43;40.25;;;18.77;;
67108;SDS011;54027;50.786;7.058;2023-11-21T09:27:09;41.78;;;19.77;;
67108;SDS011;54027;50.786;7.058;2023-11-21T09:29:37;39.60;;;19.60;;
67108;SDS011;54027;50.786;7.058;2023-11-21T09:32:06;39.45;;;19.95;;
67108;SDS011;54027;50.786;7.058;2023-11-21T09:34:35;42.47;;;20.88;;
67108;SDS011;54027;50.786;7.058;2023-11-21T09:37:03;40.45;;;19.25;;
67108;SDS011;54027;50.786;7.058;2023-11-21T09:39:31;42.33;;;20.48;;
67108;SDS011;54027;50.786;7.058;2023-11-21T09:42:01;38.30;;;20.50;;
67108;SDS011;54027;50.786;7.058;2023-11-21T09:44:43;43.50;;;21.08;;
67108;SDS011;54027;50.786;7.058;2023-11-21T09:47:28;50.53;;;21.90;;
67108;SDS011;54027;50.786;7.058;2023-11-21T09:49:54;43.47;;;22.20;;
67108;SDS011;54027;50.786;7.058;2023-11-21T09:52:22;44.05;;;22.58;;
67108;SDS011;54027;50.786;7.058;2023-11-21T09:54:50;47.75;;;22.55;;
67108;SDS011;54027;50.786;7.058;2023-11-21T09:57:19;47.17;;;24.20;;
67108;SDS011;54027;50.786;7.058;2023-11-21T09:59:46;47.75;;;23.63;;
67108;SDS011;54027;50.786;7.058;2023-11-21T10:02:15;47.70;;;23.38;;
67108;SDS011;54027;50.786;7.058;2023-11-21T10:04:43;46.55;;;24.10;;
67108;SDS011;54027;50.786;7.058;2023-11-21T10:07:10;47.63;;;24.45;;
67108;SDS011;54027;50.786;7.058;2023-11-21T10:09:37;50.85;;;23.58;;
67108;SDS011;54027;50.786;7.058;2023-11-21T10:12:03;45.10;;;23.02;;
67108;SDS011;54027;50.786;7.058;2023-11-21T10:14:31;48.97;;;24.60;;
67108;SDS011;54027;50.786;7.058;2023-11-21T10:16:58;49.58;;;25.90;;
67108;SDS011;54027;50.786;7.058;2023-11-21T10:19:23;52.53;;;25.33;;
67108;SDS011;54027;50.786;7.058;2023-11-21T10:21:51;54.63;;;26.08;;
67108;SDS011;54027;50.786;7.058;2023-11-21T10:24:17;46.75;;;25.02;;
67108;SDS011;54027;50.786;7.058;2023-11-21T10:26:43;55.53;;;25.42;;
67108;SDS011;54027;50.786;7.058;2023-11-21T10:29:10;50.10;;;25.13;;
67108;SDS011;54027;50.786;7.058;2023-11-21T10:31:41;51.20;;;26.20;;
67108;SDS011;54027;50.786;7.058;2023-11-21T10:34:18;43.03;;;23.92;;
67108;SDS011;54027;50.786;7.058;2023-11-21T10:36:44;55.30;;;27.05;;
67108;SDS011;54027;50.786;7.058;2023-11-21T10:39:17;48.42;;;25.17;;
67108;SDS011;54027;50.786;7.058;2023-11-21T10:41:47;53.28;;;25.50;;
67108;SDS011;54027;50.786;7.058;2023-11-21T10:44:14;51.45;;;26.88;;
67108;SDS011;54027;50.786;7.058;2023-11-21T10:46:45;56.28;;;29.05;;
67108;SDS011;54027;50.786;7.058;2023-11-21T10:49:15;52.05;;;26.63;;
67108;SDS011;54027;50.786;7.058;2023-11-21T10:51:43;55.28;;;27.85;;
67108;SDS011;54027;50.786;7.058;2023-11-21T10:54:09;53.95;;;27.80;;
67108;SDS011;54027;50.786;7.058;2023-11-21T10:56:34;66.03;;;30.38;;
67108;SDS011;54027;50.786;7.058;2023-11-21T10:59:05;54.45;;;27.90;;
67108;SDS011;54027;50.786;7.058;2023-11-21T11:01:34;56.80;;;28.48;;
67108;SDS011;54027;50.786;7.058;2023-11-21T11:04:01;52.58;;;28.15;;
67108;SDS011;54027;50.786;7.058;2023-11-21T11:06:28;58.22;;;26.70;;
67108;SDS011;54027;50.786;7.058;2023-11-21T11:08:54;60.40;;;29.27;;
67108;SDS011;54027;50.786;7.058;2023-11-21T11:11:19;54.47;;;27.48;;
67108;SDS011;54027;50.786;7.058;2023-11-21T11:13:45;55.17;;;26.42;;
67108;SDS011;54027;50.786;7.058;2023-11-21T11:16:11;57.85;;;27.90;;
67108;SDS011;54027;50.786;7.058;2023-11-21T11:18:37;50.67;;;26.88;;
67108;SDS011;54027;50.786;7.058;2023-11-21T11:24:01;45.75;;;25.67;;
67108;SDS011;54027;50.786;7.058;2023-11-21T11:35:04;45.45;;;22.33;;
67108;SDS011;54027;50.786;7.058;2023-11-21T11:37:46;43.83;;;23.77;;
67108;SDS011;54027;50.786;7.058;2023-11-21T11:40:12;47.60;;;22.67;;
67108;SDS011;54027;50.786;7.058;2023-11-21T11:42:37;45.33;;;22.27;;
67108;SDS011;54027;50.786;7.058;2023-11-21T11:45:17;40.10;;;21.48;;
67108;SDS011;54027;50.786;7.058;2023-11-21T11:47:44;33.35;;;18.65;;
67108;SDS011;54027;50.786;7.058;2023-11-21T11:50:12;36.53;;;16.67;;
67108;SDS011;54027;50.786;7.058;2023-11-21T11:55:14;37.15;;;18.40;;
67108;SDS011;54027;50.786;7.058;2023-11-21T11:57:44;38.50;;;19.27;;
67108;SDS011;54027;50.786;7.058;2023-11-21T12:00:18;40.38;;;19.65;;
67108;SDS011;54027;50.786;7.058;2023-11-21T12:02:45;44.28;;;22.05;;
67108;SDS011;54027;50.786;7.058;2023-11-21T12:05:16;43.13;;;20.65;;
67108;SDS011;54027;50.786;7.058;2023-11-21T12:10:11;38.05;;;19.85;;
67108;SDS011;54027;50.786;7.058;2023-11-21T12:12:41;41.05;;;20.13;;
67108;SDS011;54027;50.786;7.058;2023-11-21T12:15:08;38.63;;;19.30;;
67108;SDS011;54027;50.786;7.058;2023-11-21T12:17:34;46.63;;;21.27;;
67108;SDS011;54027;50.786;7.058;2023-11-21T12:20:03;47.33;;;22.50;;
67108;SDS011;54027;50.786;7.058;2023-11-21T12:22:29;40.90;;;20.13;;
67108;SDS011;54027;50.786;7.058;2023-11-21T12:24:55;39.45;;;20.05;;
67108;SDS011;54027;50.786;7.058;2023-11-21T12:27:21;39.00;;;20.52;;
67108;SDS011;54027;50.786;7.058;2023-11-21T12:29:46;41.22;;;19.77;;
67108;SDS011;54027;50.786;7.058;2023-11-21T12:32:12;41.30;;;19.83;;
67108;SDS011;54027;50.786;7.058;2023-11-21T12:34:41;37.92;;;19.08;;
67108;SDS011;54027;50.786;7.058;2023-11-21T12:37:06;41.17;;;20.48;;
67108;SDS011;54027;50.786;7.058;2023-11-21T12:39:32;38.20;;;19.42;;
67108;SDS011;54027;50.786;7.058;2023-11-21T12:41:57;33.50;;;18.40;;
67108;SDS011;54027;50.786;7.058;2023-11-21T12:44:23;42.55;;;19.60;;
67108;SDS011;54027;50.786;7.058;2023-11-21T12:46:49;40.38;;;20.17;;
67108;SDS011;54027;50.786;7.058;2023-11-21T12:49:15;37.70;;;18.83;;
67108;SDS011;54027;50.786;7.058;2023-11-21T12:51:44;42.97;;;19.35;;
67108;SDS011;54027;50.786;7.058;2023-11-21T12:54:11;40.33;;;20.15;;
67108;SDS011;54027;50.786;7.058;2023-11-21T12:56:38;44.33;;;20.45;;
67108;SDS011;54027;50.786;7.058;2023-11-21T12:59:04;47.05;;;20.83;;
67108;SDS011;54027;50.786;7.058;2023-11-21T13:01:29;41.35;;;18.50;;
67108;SDS011;54027;50.786;7.058;2023-11-21T13:03:57;43.03;;;19.88;;
67108;SDS011;54027;50.786;7.058;2023-11-21T13:06:27;43.10;;;20.50;;
67108;SDS011;54027;50.786;7.058;2023-11-21T13:08:54;41.38;;;18.40;;
67108;SDS011;54027;50.786;7.058;2023-11-21T13:11:22;44.20;;;19.77;;
67108;SDS011;54027;50.786;7.058;2023-11-21T13:13:48;41.60;;;19.65;;
67108;SDS011;54027;50.786;7.058;2023-11-21T13:16:17;42.63;;;19.42;;
67108;SDS011;54027;50.786;7.058;2023-11-21T13:18:45;42.97;;;20.02;;
67108;SDS011;54027;50.786;7.058;2023-11-21T13:21:11;39.58;;;20.23;;
67108;SDS011;54027;50.786;7.058;2023-11-21T13:23:41;39.53;;;19.92;;
67108;SDS011;54027;50.786;7.058;2023-11-21T13:26:07;44.40;;;20.38;;
67108;SDS011;54027;50.786;7.058;2023-11-21T13:28:34;36.58;;;18.73;;
67108;SDS011;54027;50.786;7.058;2023-11-21T13:31:01;39.35;;;19.13;;
67108;SDS011;54027;50.786;7.058;2023-11-21T13:33:45;40.63;;;19.60;;
67108;SDS011;54027;50.786;7.058;2023-11-21T13:36:16;38.95;;;18.40;;
67108;SDS011;54027;50.786;7.058;2023-11-21T13:38:47;32.75;;;16.38;;
67108;SDS011;54027;50.786;7.058;2023-11-21T13:41:13;33.85;;;17.20;;
67108;SDS011;54027;50.786;7.058;2023-11-21T13:43:39;37.47;;;18.48;;
67108;SDS011;54027;50.786;7.058;2023-11-21T13:46:08;37.60;;;17.02;;
67108;SDS011;54027;50.786;7.058;2023-11-21T13:48:46;40.38;;;17.67;;
67108;SDS011;54027;50.786;7.058;2023-11-21T13:51:23;34.20;;;17.80;;
67108;SDS011;54027;50.786;7.058;2023-11-21T13:54:02;35.60;;;18.35;;
67108;SDS011;54027;50.786;7.058;2023-11-21T13:56:30;38.85;;;18.38;;
67108;SDS011;54027;50.786;7.058;2023-11-21T13:58:56;42.85;;;19.25;;
67108;SDS011;54027;50.786;7.058;2023-11-21T14:01:24;37.90;;;18.88;;
67108;SDS011;54027;50.786;7.058;2023-11-21T14:04:17;36.63;;;18.20;;
67108;SDS011;54027;50.786;7.058;2023-11-21T14:06:43;39.65;;;20.13;;
67108;SDS011;54027;50.786;7.058;2023-11-21T14:09:16;44.00;;;19.65;;
67108;SDS011;54027;50.786;7.058;2023-11-21T14:11:54;38.97;;;18.80;;
67108;SDS011;54027;50.786;7.058;2023-11-21T14:14:22;37.25;;;18.83;;
67108;SDS011;54027;50.786;7.058;2023-11-21T14:16:49;41.60;;;19.17;;
67108;SDS011;54027;50.786;7.058;2023-11-21T14:19:15;43.10;;;20.20;;
67108;SDS011;54027;50.786;7.058;2023-11-21T14:21:42;40.72;;;18.58;;
67108;SDS011;54027;50.786;7.058;2023-11-21T14:24:13;41.17;;;18.70;;
67108;SDS011;54027;50.786;7.058;2023-11-21T14:26:40;41.53;;;18.75;;
67108;SDS011;54027;50.786;7.058;2023-11-21T14:29:07;42.30;;;20.15;;
67108;SDS011;54027;50.786;7.058;2023-11-21T14:31:33;46.85;;;18.63;;
67108;SDS011;54027;50.786;7.058;2023-11-21T14:33:59;39.97;;;18.20;;
67108;SDS011;54027;50.786;7.058;2023-11-21T14:36:26;40.83;;;18.10;;
67108;SDS011;54027;50.786;7.058;2023-11-21T14:38:52;38.08;;;17.73;;